N27MB KLWM-KWBW
Flight info
| Callsign | N27MB |
|---|---|
| Flight time | 1h 13m |
| Altitude | 30000 |
| Route | GLYDE BAF V405 PWL HUO T299 FJC |
| Aircraft | SF50/L-BDGRSWY/LB2U2 |
Departure
| Time | 2026-04-16 19:39 |
|---|---|
| Airport | Lawrence Municipal Airport (KLWM) |
Arrival
| Time | 2026-04-16 20:53 |
|---|---|
| Airport | Wilkes Barre Wyoming Valley Airport (KWBW) |
| Time | Latitude | Longitude | Altitude | Speed | Heading |
|---|---|---|---|---|---|
| 2026-04-16 19:19 | 42.71325 | -71.12320 | 147 ft | 0 kts | 141° |
| 2026-04-16 19:33 | 42.71312 | -71.12312 | 148 ft | 2 kts | 105° |
| 2026-04-16 19:33 | 42.71319 | -71.12297 | 149 ft | 0 kts | 33° |
| 2026-04-16 19:35 | 42.71323 | -71.12293 | 149 ft | 0 kts | 21° |
| 2026-04-16 19:36 | 42.71355 | -71.12299 | 144 ft | 11 kts | 345° |
| 2026-04-16 19:36 | 42.71361 | -71.12367 | 143 ft | 13 kts | 221° |
| 2026-04-16 19:36 | 42.71288 | -71.12461 | 142 ft | 16 kts | 224° |
| 2026-04-16 19:36 | 42.71198 | -71.12576 | 140 ft | 20 kts | 222° |
| 2026-04-16 19:37 | 42.71096 | -71.12704 | 141 ft | 19 kts | 222° |
| 2026-04-16 19:37 | 42.71059 | -71.12785 | 142 ft | 0 kts | 256° |
| 2026-04-16 19:38 | 42.71058 | -71.12787 | 142 ft | 2 kts | 256° |
| 2026-04-16 19:38 | 42.71079 | -71.12860 | 143 ft | 13 kts | 304° |
| 2026-04-16 19:38 | 42.71108 | -71.12877 | 143 ft | 0 kts | 39° |
| 2026-04-16 19:38 | 42.71118 | -71.12865 | 143 ft | 16 kts | 39° |
| 2026-04-16 19:39 | 42.71387 | -71.12574 | 143 ft | 81 kts | 37° |
| 2026-04-16 19:39 | 42.71944 | -71.12003 | 355 ft | 113 kts | 34° |
| 2026-04-16 19:39 | 42.72633 | -71.11314 | 688 ft | 137 kts | 39° |
| 2026-04-16 19:39 | 42.73357 | -71.10412 | 1076 ft | 148 kts | 52° |
| 2026-04-16 19:40 | 42.73954 | -71.09240 | 1506 ft | 154 kts | 68° |
| 2026-04-16 19:40 | 42.74458 | -71.07839 | 1794 ft | 175 kts | 65° |
| 2026-04-16 19:40 | 42.75030 | -71.06261 | 1991 ft | 201 kts | 66° |
| 2026-04-16 19:40 | 42.75415 | -71.04380 | 1985 ft | 209 kts | 96° |
| 2026-04-16 19:41 | 42.74766 | -71.02783 | 2584 ft | 186 kts | 152° |
| 2026-04-16 19:41 | 42.73671 | -71.02157 | 3391 ft | 167 kts | 168° |
| 2026-04-16 19:41 | 42.72557 | -71.01567 | 3833 ft | 175 kts | 166° |
| 2026-04-16 19:41 | 42.71424 | -71.00936 | 4392 ft | 177 kts | 166° |
| 2026-04-16 19:42 | 42.70257 | -71.00428 | 4852 ft | 173 kts | 186° |
| 2026-04-16 19:42 | 42.69083 | -71.00595 | 5329 ft | 170 kts | 197° |
| 2026-04-16 19:42 | 42.67897 | -71.00793 | 5838 ft | 173 kts | 196° |
| 2026-04-16 19:42 | 42.66690 | -71.00984 | 6306 ft | 177 kts | 196° |
| 2026-04-16 19:43 | 42.65461 | -71.01177 | 6807 ft | 178 kts | 196° |
| 2026-04-16 19:43 | 42.64237 | -71.01353 | 7262 ft | 180 kts | 196° |
| 2026-04-16 19:43 | 42.62985 | -71.01522 | 7743 ft | 182 kts | 196° |
| 2026-04-16 19:43 | 42.61798 | -71.01913 | 8174 ft | 168 kts | 224° |
| 2026-04-16 19:44 | 42.61256 | -71.03175 | 8647 ft | 155 kts | 256° |
| 2026-04-16 19:44 | 42.60806 | -71.04520 | 9102 ft | 160 kts | 244° |
| 2026-04-16 19:44 | 42.60167 | -71.05761 | 9590 ft | 161 kts | 241° |
| 2026-04-16 19:44 | 42.59508 | -71.06987 | 10060 ft | 161 kts | 241° |
| 2026-04-16 19:45 | 42.58842 | -71.08216 | 10488 ft | 162 kts | 241° |
| 2026-04-16 19:45 | 42.58174 | -71.09450 | 10911 ft | 163 kts | 241° |
| 2026-04-16 19:45 | 42.57499 | -71.10693 | 11337 ft | 164 kts | 241° |
| 2026-04-16 19:45 | 42.56834 | -71.11924 | 11742 ft | 164 kts | 241° |
| 2026-04-16 19:46 | 42.56156 | -71.13176 | 12158 ft | 166 kts | 240° |
| 2026-04-16 19:46 | 42.55472 | -71.14438 | 12577 ft | 167 kts | 241° |
| 2026-04-16 19:46 | 42.54783 | -71.15709 | 12995 ft | 168 kts | 240° |
| 2026-04-16 19:46 | 42.54090 | -71.16987 | 13413 ft | 169 kts | 240° |
| 2026-04-16 19:47 | 42.53394 | -71.18271 | 13816 ft | 169 kts | 240° |
| 2026-04-16 19:47 | 42.52681 | -71.19588 | 13978 ft | 182 kts | 240° |
| 2026-04-16 19:47 | 42.51897 | -71.21039 | 13995 ft | 199 kts | 240° |
| 2026-04-16 19:47 | 42.51048 | -71.22598 | 13993 ft | 212 kts | 239° |
| 2026-04-16 19:48 | 42.50163 | -71.24220 | 13993 ft | 221 kts | 239° |
| 2026-04-16 19:48 | 42.49236 | -71.25916 | 13971 ft | 227 kts | 239° |
| 2026-04-16 19:48 | 42.48293 | -71.27650 | 13970 ft | 230 kts | 239° |
| 2026-04-16 19:48 | 42.47335 | -71.29404 | 13955 ft | 233 kts | 239° |
| 2026-04-16 19:49 | 42.46369 | -71.31179 | 13958 ft | 235 kts | 239° |
| 2026-04-16 19:49 | 42.45394 | -71.32968 | 13961 ft | 238 kts | 239° |
| 2026-04-16 19:49 | 42.44407 | -71.34774 | 13960 ft | 239 kts | 239° |
| 2026-04-16 19:49 | 42.43425 | -71.36566 | 14163 ft | 230 kts | 238° |
| 2026-04-16 19:50 | 42.42521 | -71.38202 | 14858 ft | 204 kts | 239° |
| 2026-04-16 19:50 | 42.41734 | -71.39641 | 15692 ft | 178 kts | 240° |
| 2026-04-16 19:50 | 42.41014 | -71.40967 | 16130 ft | 175 kts | 241° |
| 2026-04-16 19:50 | 42.40288 | -71.42304 | 16464 ft | 177 kts | 241° |
| 2026-04-16 19:51 | 42.39563 | -71.43624 | 16805 ft | 177 kts | 241° |
| 2026-04-16 19:51 | 42.38827 | -71.44968 | 17156 ft | 178 kts | 241° |
| 2026-04-16 19:51 | 42.38090 | -71.46316 | 17496 ft | 179 kts | 241° |
| 2026-04-16 19:51 | 42.37347 | -71.47672 | 17848 ft | 180 kts | 241° |
| 2026-04-16 19:52 | 42.36604 | -71.49032 | 18184 ft | 180 kts | 241° |
| 2026-04-16 19:52 | 42.35855 | -71.50393 | 18487 ft | 180 kts | 241° |
| 2026-04-16 19:52 | 42.35105 | -71.51756 | 18773 ft | 181 kts | 241° |
| 2026-04-16 19:52 | 42.34358 | -71.53131 | 19066 ft | 182 kts | 241° |
| 2026-04-16 19:53 | 42.33600 | -71.54504 | 19355 ft | 183 kts | 240° |
| 2026-04-16 19:53 | 42.32840 | -71.55885 | 19665 ft | 183 kts | 240° |
| 2026-04-16 19:53 | 42.32082 | -71.57257 | 19952 ft | 182 kts | 240° |
| 2026-04-16 19:53 | 42.31337 | -71.58614 | 20217 ft | 183 kts | 240° |
| 2026-04-16 19:54 | 42.30577 | -71.59992 | 20479 ft | 183 kts | 240° |
| 2026-04-16 19:54 | 42.29816 | -71.61374 | 20739 ft | 183 kts | 240° |
| 2026-04-16 19:54 | 42.29055 | -71.62754 | 21016 ft | 183 kts | 240° |
| 2026-04-16 19:54 | 42.28298 | -71.64127 | 21314 ft | 182 kts | 240° |
| 2026-04-16 19:55 | 42.27545 | -71.65494 | 21604 ft | 181 kts | 240° |
| 2026-04-16 19:55 | 42.26796 | -71.66849 | 21920 ft | 179 kts | 240° |
| 2026-04-16 19:55 | 42.26052 | -71.68200 | 22203 ft | 179 kts | 240° |
| 2026-04-16 19:55 | 42.25307 | -71.69549 | 22511 ft | 178 kts | 240° |
| 2026-04-16 19:56 | 42.24568 | -71.70888 | 22810 ft | 178 kts | 240° |
| 2026-04-16 19:56 | 42.23831 | -71.72219 | 23120 ft | 177 kts | 240° |
| 2026-04-16 19:56 | 42.23108 | -71.73527 | 23410 ft | 176 kts | 240° |
| 2026-04-16 19:56 | 42.22444 | -71.74894 | 23653 ft | 173 kts | 247° |
| 2026-04-16 19:57 | 42.21965 | -71.76367 | 23883 ft | 171 kts | 254° |
| 2026-04-16 19:57 | 42.21668 | -71.77913 | 24111 ft | 170 kts | 261° |
| 2026-04-16 19:57 | 42.21548 | -71.79498 | 24346 ft | 170 kts | 266° |
| 2026-04-16 19:57 | 42.21463 | -71.81090 | 24576 ft | 170 kts | 265° |
| 2026-04-16 19:58 | 42.21373 | -71.82658 | 24804 ft | 170 kts | 265° |
| 2026-04-16 19:58 | 42.21285 | -71.84274 | 25043 ft | 170 kts | 265° |
| 2026-04-16 19:58 | 42.21198 | -71.85867 | 25281 ft | 171 kts | 265° |
| 2026-04-16 19:58 | 42.21113 | -71.87442 | 25516 ft | 171 kts | 265° |
| 2026-04-16 19:59 | 42.21025 | -71.89039 | 25753 ft | 171 kts | 265° |
| 2026-04-16 19:59 | 42.20939 | -71.90640 | 26000 ft | 171 kts | 265° |
| 2026-04-16 19:59 | 42.20850 | -71.92236 | 26288 ft | 170 kts | 265° |
| 2026-04-16 20:00 | 42.20676 | -71.95403 | 26837 ft | 168 kts | 263° |
| 2026-04-16 20:00 | 42.20588 | -71.96951 | 27146 ft | 165 kts | 264° |
| 2026-04-16 20:00 | 42.20501 | -71.98510 | 27341 ft | 169 kts | 265° |
| 2026-04-16 20:00 | 42.20442 | -71.99558 | 27514 ft | 169 kts | 265° |
| 2026-04-16 20:01 | 42.20352 | -72.01143 | 27774 ft | 170 kts | 265° |
| 2026-04-16 20:01 | 42.20235 | -72.03241 | 28134 ft | 169 kts | 265° |
| 2026-04-16 20:01 | 42.20147 | -72.04813 | 28428 ft | 167 kts | 265° |
| 2026-04-16 20:01 | 42.20060 | -72.06378 | 28714 ft | 167 kts | 265° |
| 2026-04-16 20:02 | 42.19971 | -72.07940 | 28993 ft | 167 kts | 265° |
| 2026-04-16 20:02 | 42.19914 | -72.08974 | 29177 ft | 167 kts | 265° |
| 2026-04-16 20:02 | 42.19825 | -72.10535 | 29454 ft | 167 kts | 265° |
| 2026-04-16 20:02 | 42.19736 | -72.12091 | 29716 ft | 166 kts | 265° |
| 2026-04-16 20:03 | 42.19648 | -72.13660 | 29859 ft | 172 kts | 265° |
| 2026-04-16 20:03 | 42.19554 | -72.15312 | 29874 ft | 181 kts | 265° |
| 2026-04-16 20:03 | 42.19455 | -72.17046 | 29871 ft | 190 kts | 265° |
| 2026-04-16 20:03 | 42.19316 | -72.19451 | 29850 ft | 199 kts | 265° |
| 2026-04-16 20:04 | 42.19244 | -72.20719 | 29844 ft | 203 kts | 265° |
| 2026-04-16 20:04 | 42.19131 | -72.22640 | 29849 ft | 208 kts | 265° |
| 2026-04-16 20:04 | 42.19020 | -72.24588 | 29840 ft | 214 kts | 265° |
| 2026-04-16 20:04 | 42.18901 | -72.26609 | 29833 ft | 219 kts | 264° |
| 2026-04-16 20:05 | 42.18780 | -72.28685 | 29829 ft | 225 kts | 264° |
| 2026-04-16 20:05 | 42.18656 | -72.30815 | 29850 ft | 230 kts | 264° |
| 2026-04-16 20:05 | 42.18528 | -72.32989 | 29842 ft | 235 kts | 264° |
| 2026-04-16 20:05 | 42.18399 | -72.35198 | 29845 ft | 238 kts | 264° |
| 2026-04-16 20:06 | 42.18267 | -72.37442 | 29848 ft | 242 kts | 264° |
| 2026-04-16 20:06 | 42.18134 | -72.39711 | 29832 ft | 244 kts | 264° |
| 2026-04-16 20:06 | 42.17996 | -72.42009 | 29833 ft | 247 kts | 264° |
| 2026-04-16 20:06 | 42.17860 | -72.44322 | 29829 ft | 249 kts | 264° |
| 2026-04-16 20:07 | 42.17720 | -72.46660 | 29845 ft | 251 kts | 264° |
| 2026-04-16 20:07 | 42.17578 | -72.49017 | 29831 ft | 253 kts | 264° |
| 2026-04-16 20:07 | 42.17435 | -72.51386 | 29832 ft | 254 kts | 264° |
| 2026-04-16 20:07 | 42.17293 | -72.53735 | 29832 ft | 255 kts | 264° |
| 2026-04-16 20:08 | 42.17147 | -72.56129 | 29828 ft | 256 kts | 264° |
| 2026-04-16 20:08 | 42.17001 | -72.58522 | 29831 ft | 256 kts | 264° |
| 2026-04-16 20:08 | 42.16855 | -72.60904 | 29839 ft | 255 kts | 263° |
| 2026-04-16 20:08 | 42.16710 | -72.63276 | 29826 ft | 252 kts | 263° |
| 2026-04-16 20:09 | 42.16567 | -72.65622 | 29824 ft | 250 kts | 263° |
| 2026-04-16 20:09 | 42.16422 | -72.67960 | 29823 ft | 251 kts | 263° |
| 2026-04-16 20:09 | 42.16148 | -72.70271 | 29820 ft | 250 kts | 256° |
| 2026-04-16 20:09 | 42.15627 | -72.72506 | 29821 ft | 250 kts | 250° |
| 2026-04-16 20:10 | 42.14883 | -72.74598 | 29821 ft | 252 kts | 243° |
| 2026-04-16 20:10 | 42.13976 | -72.76621 | 29823 ft | 252 kts | 242° |
| 2026-04-16 20:10 | 42.13085 | -72.78654 | 29828 ft | 253 kts | 242° |
| 2026-04-16 20:10 | 42.12188 | -72.80698 | 29811 ft | 253 kts | 242° |
| 2026-04-16 20:11 | 42.11287 | -72.82734 | 29815 ft | 253 kts | 242° |
| 2026-04-16 20:11 | 42.10383 | -72.84773 | 29828 ft | 253 kts | 242° |
| 2026-04-16 20:11 | 42.09480 | -72.86808 | 29818 ft | 253 kts | 242° |
| 2026-04-16 20:11 | 42.08577 | -72.88844 | 29817 ft | 252 kts | 242° |
| 2026-04-16 20:12 | 42.07678 | -72.90868 | 29825 ft | 252 kts | 242° |
| 2026-04-16 20:12 | 42.06778 | -72.92894 | 29820 ft | 253 kts | 242° |
| 2026-04-16 20:12 | 42.05886 | -72.94901 | 29824 ft | 254 kts | 242° |
| 2026-04-16 20:12 | 42.04978 | -72.96943 | 29833 ft | 254 kts | 242° |
| 2026-04-16 20:13 | 42.04071 | -72.98983 | 29840 ft | 254 kts | 242° |
| 2026-04-16 20:13 | 42.03165 | -73.01019 | 29837 ft | 254 kts | 242° |
| 2026-04-16 20:13 | 42.02259 | -73.03050 | 29838 ft | 253 kts | 241° |
| 2026-04-16 20:13 | 42.01357 | -73.05074 | 29838 ft | 252 kts | 241° |
| 2026-04-16 20:14 | 42.00460 | -73.07086 | 29837 ft | 250 kts | 242° |
| 2026-04-16 20:14 | 41.99562 | -73.09096 | 29841 ft | 251 kts | 242° |
| 2026-04-16 20:14 | 41.98664 | -73.11107 | 29844 ft | 251 kts | 242° |
| 2026-04-16 20:14 | 41.97762 | -73.13128 | 29847 ft | 252 kts | 241° |
| 2026-04-16 20:15 | 41.96870 | -73.15121 | 29842 ft | 253 kts | 241° |
| 2026-04-16 20:15 | 41.95963 | -73.17146 | 29843 ft | 254 kts | 241° |
| 2026-04-16 20:15 | 41.95047 | -73.19188 | 29840 ft | 256 kts | 241° |
| 2026-04-16 20:15 | 41.94129 | -73.21237 | 29855 ft | 257 kts | 241° |
| 2026-04-16 20:16 | 41.93206 | -73.23295 | 29843 ft | 258 kts | 241° |
| 2026-04-16 20:16 | 41.92280 | -73.25356 | 29844 ft | 257 kts | 240° |
| 2026-04-16 20:16 | 41.91357 | -73.27408 | 29849 ft | 256 kts | 241° |
| 2026-04-16 20:16 | 41.90438 | -73.29453 | 29841 ft | 255 kts | 241° |
| 2026-04-16 20:17 | 41.89525 | -73.31485 | 29852 ft | 254 kts | 241° |
| 2026-04-16 20:17 | 41.88616 | -73.33503 | 29849 ft | 252 kts | 241° |
| 2026-04-16 20:17 | 41.87714 | -73.35512 | 29863 ft | 251 kts | 241° |
| 2026-04-16 20:17 | 41.86813 | -73.37518 | 29842 ft | 251 kts | 241° |
| 2026-04-16 20:18 | 41.85911 | -73.39521 | 29840 ft | 251 kts | 241° |
| 2026-04-16 20:18 | 41.85019 | -73.41501 | 29848 ft | 252 kts | 241° |
| 2026-04-16 20:18 | 41.84111 | -73.43516 | 29847 ft | 253 kts | 241° |
| 2026-04-16 20:18 | 41.83200 | -73.45539 | 29848 ft | 254 kts | 241° |
| 2026-04-16 20:19 | 41.82284 | -73.47570 | 29851 ft | 255 kts | 241° |
| 2026-04-16 20:19 | 41.81365 | -73.49601 | 29842 ft | 255 kts | 240° |
| 2026-04-16 20:19 | 41.80445 | -73.51635 | 29827 ft | 256 kts | 240° |
| 2026-04-16 20:19 | 41.79522 | -73.53675 | 29827 ft | 256 kts | 240° |
| 2026-04-16 20:20 | 41.78596 | -73.55721 | 29822 ft | 257 kts | 240° |
| 2026-04-16 20:20 | 41.77670 | -73.57763 | 29823 ft | 256 kts | 240° |
| 2026-04-16 20:20 | 41.76750 | -73.59793 | 29820 ft | 254 kts | 240° |
| 2026-04-16 20:20 | 41.75848 | -73.61782 | 29818 ft | 252 kts | 240° |
| 2026-04-16 20:21 | 41.74939 | -73.63784 | 29816 ft | 252 kts | 241° |
| 2026-04-16 20:21 | 41.74027 | -73.65798 | 29825 ft | 253 kts | 241° |
| 2026-04-16 20:21 | 41.73109 | -73.67817 | 29604 ft | 255 kts | 241° |
| 2026-04-16 20:21 | 41.72196 | -73.69824 | 29189 ft | 250 kts | 241° |
| 2026-04-16 20:22 | 41.71295 | -73.71804 | 28701 ft | 248 kts | 240° |
| 2026-04-16 20:22 | 41.70403 | -73.73762 | 28223 ft | 245 kts | 241° |
| 2026-04-16 20:22 | 41.69518 | -73.75708 | 27750 ft | 245 kts | 241° |
| 2026-04-16 20:22 | 41.68630 | -73.77656 | 27276 ft | 246 kts | 241° |
| 2026-04-16 20:23 | 41.67733 | -73.79622 | 26774 ft | 249 kts | 241° |
| 2026-04-16 20:23 | 41.66838 | -73.81572 | 26284 ft | 250 kts | 240° |
| 2026-04-16 20:23 | 41.65776 | -73.83423 | 25800 ft | 253 kts | 233° |
| 2026-04-16 20:23 | 41.64612 | -73.85184 | 25325 ft | 253 kts | 233° |
| 2026-04-16 20:24 | 41.63460 | -73.86972 | 24858 ft | 254 kts | 233° |
| 2026-04-16 20:24 | 41.62303 | -73.88763 | 24398 ft | 255 kts | 233° |
| 2026-04-16 20:24 | 41.61138 | -73.90555 | 23944 ft | 256 kts | 233° |
| 2026-04-16 20:24 | 41.59966 | -73.92354 | 23492 ft | 257 kts | 233° |
| 2026-04-16 20:25 | 41.58787 | -73.94169 | 22847 ft | 261 kts | 233° |
| 2026-04-16 20:25 | 41.57587 | -73.96013 | 22198 ft | 263 kts | 233° |
| 2026-04-16 20:25 | 41.56384 | -73.97853 | 21563 ft | 263 kts | 233° |
| 2026-04-16 20:25 | 41.55182 | -73.99691 | 20946 ft | 263 kts | 233° |
| 2026-04-16 20:26 | 41.53979 | -74.01524 | 20347 ft | 263 kts | 233° |
| 2026-04-16 20:26 | 41.52793 | -74.03360 | 19758 ft | 267 kts | 233° |
| 2026-04-16 20:26 | 41.51565 | -74.05247 | 19174 ft | 270 kts | 233° |
| 2026-04-16 20:26 | 41.50320 | -74.07147 | 18619 ft | 274 kts | 233° |
| 2026-04-16 20:27 | 41.49064 | -74.09069 | 18030 ft | 276 kts | 233° |
| 2026-04-16 20:27 | 41.47799 | -74.11000 | 17381 ft | 278 kts | 233° |
| 2026-04-16 20:27 | 41.46526 | -74.12946 | 16746 ft | 279 kts | 233° |
| 2026-04-16 20:27 | 41.45250 | -74.14892 | 16126 ft | 277 kts | 233° |
| 2026-04-16 20:28 | 41.43993 | -74.16808 | 15515 ft | 273 kts | 233° |
| 2026-04-16 20:28 | 41.42747 | -74.18706 | 14917 ft | 270 kts | 233° |
| 2026-04-16 20:28 | 41.41532 | -74.20560 | 14340 ft | 269 kts | 233° |
| 2026-04-16 20:28 | 41.40304 | -74.22427 | 13770 ft | 267 kts | 233° |
| 2026-04-16 20:29 | 41.39085 | -74.24284 | 13135 ft | 265 kts | 233° |
| 2026-04-16 20:29 | 41.37876 | -74.26128 | 12502 ft | 264 kts | 232° |
| 2026-04-16 20:29 | 41.36666 | -74.27962 | 11876 ft | 263 kts | 232° |
| 2026-04-16 20:29 | 41.35465 | -74.29779 | 11269 ft | 261 kts | 232° |
| 2026-04-16 20:30 | 41.34275 | -74.31591 | 10667 ft | 259 kts | 231° |
| 2026-04-16 20:30 | 41.33087 | -74.33395 | 10072 ft | 258 kts | 231° |
| 2026-04-16 20:30 | 41.31914 | -74.35168 | 9460 ft | 251 kts | 232° |
| 2026-04-16 20:30 | 41.30773 | -74.36897 | 8897 ft | 247 kts | 231° |
| 2026-04-16 20:31 | 41.29634 | -74.38623 | 8395 ft | 249 kts | 231° |
| 2026-04-16 20:31 | 41.28505 | -74.40337 | 7911 ft | 251 kts | 231° |
| 2026-04-16 20:31 | 41.27352 | -74.42079 | 7427 ft | 250 kts | 230° |
| 2026-04-16 20:31 | 41.26314 | -74.43918 | 6944 ft | 249 kts | 239° |
| 2026-04-16 20:32 | 41.25588 | -74.45991 | 6577 ft | 247 kts | 249° |
| 2026-04-16 20:32 | 41.25197 | -74.48128 | 6226 ft | 229 kts | 259° |
| 2026-04-16 20:32 | 41.25121 | -74.50163 | 6010 ft | 212 kts | 269° |
| 2026-04-16 20:32 | 41.25289 | -74.52119 | 6005 ft | 216 kts | 275° |
| 2026-04-16 20:33 | 41.25509 | -74.54082 | 6006 ft | 214 kts | 275° |
| 2026-04-16 20:33 | 41.25715 | -74.56011 | 6003 ft | 215 kts | 274° |
| 2026-04-16 20:33 | 41.25933 | -74.57995 | 6007 ft | 216 kts | 275° |
| 2026-04-16 20:33 | 41.26153 | -74.59950 | 6009 ft | 214 kts | 275° |
| 2026-04-16 20:34 | 41.26369 | -74.61918 | 6006 ft | 216 kts | 275° |
| 2026-04-16 20:34 | 41.26589 | -74.63883 | 6006 ft | 214 kts | 275° |
| 2026-04-16 20:34 | 41.26803 | -74.65839 | 6006 ft | 213 kts | 274° |
| 2026-04-16 20:34 | 41.27019 | -74.67781 | 6006 ft | 212 kts | 274° |
| 2026-04-16 20:35 | 41.27233 | -74.69722 | 6008 ft | 212 kts | 274° |
| 2026-04-16 20:35 | 41.27446 | -74.71666 | 6008 ft | 213 kts | 275° |
| 2026-04-16 20:35 | 41.27656 | -74.73600 | 6008 ft | 215 kts | 275° |
| 2026-04-16 20:35 | 41.27873 | -74.75569 | 6009 ft | 216 kts | 275° |
| 2026-04-16 20:36 | 41.28087 | -74.77549 | 6009 ft | 216 kts | 275° |
| 2026-04-16 20:36 | 41.28303 | -74.79525 | 6009 ft | 215 kts | 274° |
| 2026-04-16 20:36 | 41.28518 | -74.81479 | 6010 ft | 214 kts | 274° |
| 2026-04-16 20:36 | 41.28728 | -74.83432 | 6007 ft | 213 kts | 275° |
| 2026-04-16 20:37 | 41.28941 | -74.85374 | 6010 ft | 212 kts | 274° |
| 2026-04-16 20:37 | 41.29156 | -74.87336 | 6006 ft | 216 kts | 275° |
| 2026-04-16 20:37 | 41.29365 | -74.89282 | 6014 ft | 215 kts | 274° |
| 2026-04-16 20:37 | 41.29576 | -74.91245 | 6008 ft | 214 kts | 275° |
| 2026-04-16 20:38 | 41.29788 | -74.93206 | 6008 ft | 214 kts | 274° |
| 2026-04-16 20:38 | 41.29999 | -74.95172 | 6010 ft | 215 kts | 274° |
| 2026-04-16 20:38 | 41.30211 | -74.97146 | 6008 ft | 215 kts | 274° |
| 2026-04-16 20:38 | 41.30423 | -74.99116 | 6007 ft | 215 kts | 274° |
| 2026-04-16 20:39 | 41.30632 | -75.01083 | 6017 ft | 215 kts | 274° |
| 2026-04-16 20:39 | 41.30841 | -75.03031 | 6019 ft | 216 kts | 274° |
| 2026-04-16 20:39 | 41.31053 | -75.05012 | 6022 ft | 217 kts | 274° |
| 2026-04-16 20:39 | 41.31265 | -75.07003 | 6030 ft | 218 kts | 274° |
| 2026-04-16 20:40 | 41.31478 | -75.09011 | 6036 ft | 220 kts | 275° |
| 2026-04-16 20:40 | 41.31696 | -75.11030 | 6041 ft | 219 kts | 275° |
| 2026-04-16 20:40 | 41.32052 | -75.13008 | 6038 ft | 222 kts | 281° |
| 2026-04-16 20:40 | 41.32462 | -75.15000 | 6041 ft | 224 kts | 281° |
| 2026-04-16 20:41 | 41.32856 | -75.16992 | 6039 ft | 221 kts | 280° |
| 2026-04-16 20:41 | 41.33243 | -75.18967 | 6035 ft | 219 kts | 280° |
| 2026-04-16 20:41 | 41.33621 | -75.20894 | 6037 ft | 218 kts | 281° |
| 2026-04-16 20:41 | 41.34005 | -75.22850 | 6037 ft | 219 kts | 280° |
| 2026-04-16 20:42 | 41.34391 | -75.24814 | 6042 ft | 220 kts | 280° |
| 2026-04-16 20:42 | 41.34776 | -75.26781 | 6044 ft | 219 kts | 279° |
| 2026-04-16 20:42 | 41.35157 | -75.28736 | 6044 ft | 218 kts | 279° |
| 2026-04-16 20:42 | 41.35541 | -75.30696 | 6043 ft | 221 kts | 280° |
| 2026-04-16 20:43 | 41.35929 | -75.32680 | 6042 ft | 221 kts | 280° |
| 2026-04-16 20:43 | 41.36313 | -75.34652 | 6044 ft | 221 kts | 280° |
| 2026-04-16 20:43 | 41.36693 | -75.36608 | 5985 ft | 222 kts | 280° |
| 2026-04-16 20:43 | 41.37081 | -75.38593 | 5843 ft | 221 kts | 280° |
| 2026-04-16 20:44 | 41.37466 | -75.40566 | 5677 ft | 220 kts | 280° |
| 2026-04-16 20:44 | 41.37849 | -75.42533 | 5466 ft | 218 kts | 280° |
| 2026-04-16 20:44 | 41.38227 | -75.44469 | 5296 ft | 216 kts | 280° |
| 2026-04-16 20:44 | 41.38600 | -75.46404 | 5121 ft | 216 kts | 280° |
| 2026-04-16 20:45 | 41.38975 | -75.48343 | 4953 ft | 215 kts | 280° |
| 2026-04-16 20:45 | 41.39346 | -75.50266 | 4783 ft | 214 kts | 280° |
| 2026-04-16 20:45 | 41.39713 | -75.52190 | 4620 ft | 215 kts | 280° |
| 2026-04-16 20:45 | 41.40084 | -75.54089 | 4455 ft | 214 kts | 280° |
| 2026-04-16 20:46 | 41.40458 | -75.56003 | 4276 ft | 213 kts | 280° |
| 2026-04-16 20:46 | 41.40825 | -75.57907 | 4101 ft | 209 kts | 280° |
| 2026-04-16 20:46 | 41.41177 | -75.59718 | 4005 ft | 195 kts | 280° |
| 2026-04-16 20:46 | 41.41454 | -75.61455 | 3992 ft | 190 kts | 271° |
| 2026-04-16 20:47 | 41.41365 | -75.63195 | 3993 ft | 188 kts | 256° |
| 2026-04-16 20:47 | 41.40928 | -75.64800 | 3974 ft | 183 kts | 242° |
| 2026-04-16 20:47 | 41.40204 | -75.66199 | 3772 ft | 184 kts | 232° |
| 2026-04-16 20:47 | 41.39437 | -75.67572 | 3532 ft | 184 kts | 234° |
| 2026-04-16 20:48 | 41.38703 | -75.68928 | 3301 ft | 176 kts | 234° |
| 2026-04-16 20:48 | 41.38001 | -75.70195 | 3097 ft | 162 kts | 234° |
| 2026-04-16 20:48 | 41.37385 | -75.71302 | 2883 ft | 138 kts | 235° |
| 2026-04-16 20:48 | 41.36836 | -75.72306 | 2711 ft | 132 kts | 233° |
| 2026-04-16 20:49 | 41.36310 | -75.73236 | 2551 ft | 128 kts | 233° |
| 2026-04-16 20:49 | 41.35789 | -75.74177 | 2395 ft | 123 kts | 237° |
| 2026-04-16 20:49 | 41.35276 | -75.75098 | 2246 ft | 126 kts | 234° |
| 2026-04-16 20:49 | 41.34732 | -75.76077 | 2080 ft | 133 kts | 236° |
| 2026-04-16 20:50 | 41.34202 | -75.77016 | 1917 ft | 118 kts | 236° |
| 2026-04-16 20:50 | 41.33730 | -75.77899 | 1754 ft | 123 kts | 240° |
| 2026-04-16 20:50 | 41.33205 | -75.78855 | 1605 ft | 130 kts | 232° |
| 2026-04-16 20:50 | 41.32716 | -75.79725 | 1438 ft | 114 kts | 234° |
| 2026-04-16 20:51 | 41.32280 | -75.80506 | 1288 ft | 94 kts | 237° |
| 2026-04-16 20:51 | 41.31934 | -75.81143 | 1190 ft | 77 kts | 238° |
| 2026-04-16 20:51 | 41.31608 | -75.81677 | 1103 ft | 74 kts | 238° |
| 2026-04-16 20:51 | 41.31291 | -75.82283 | 982 ft | 77 kts | 240° |
| 2026-04-16 20:52 | 41.30999 | -75.82744 | 943 ft | 55 kts | 228° |
| 2026-04-16 20:52 | 41.30639 | -75.83108 | 789 ft | 67 kts | 241° |
| 2026-04-16 20:52 | 41.30489 | -75.83664 | 670 ft | 69 kts | 254° |
| 2026-04-16 20:52 | 41.30258 | -75.84148 | 635 ft | 67 kts | 236° |
| 2026-04-16 20:53 | 41.29986 | -75.84635 | 556 ft | 62 kts | 238° |
| 2026-04-16 20:53 | 41.29772 | -75.85027 | 544 ft | 41 kts | 231° |
| 2026-04-16 20:53 | 41.29628 | -75.85280 | 544 ft | 29 kts | 233° |
| 2026-04-16 20:53 | 41.29530 | -75.85456 | 543 ft | 16 kts | 234° |
| 2026-04-16 20:54 | 41.29506 | -75.85520 | 542 ft | 9 kts | 285° |
| 2026-04-16 20:54 | 41.29546 | -75.85578 | 544 ft | 7 kts | 322° |
| 2026-04-16 20:54 | 41.29578 | -75.85609 | 545 ft | 4 kts | 322° |
| 2026-04-16 20:54 | 41.29596 | -75.85626 | 545 ft | 2 kts | 329° |
| 2026-04-16 20:55 | 41.29599 | -75.85629 | 545 ft | 0 kts | 328° |
| 2026-04-16 20:55 | 41.29602 | -75.85631 | 545 ft | 1 kts | 327° |
| 2026-04-16 20:55 | 41.29608 | -75.85637 | 545 ft | 6 kts | 325° |
| 2026-04-16 20:55 | 41.29671 | -75.85694 | 544 ft | 12 kts | 325° |
| 2026-04-16 20:56 | 41.29734 | -75.85750 | 545 ft | 10 kts | 326° |
| 2026-04-16 20:56 | 41.29794 | -75.85791 | 545 ft | 9 kts | 2° |
| 2026-04-16 20:56 | 41.29842 | -75.85794 | 545 ft | 5 kts | 318° |
| 2026-04-16 20:56 | 41.29858 | -75.85805 | 545 ft | 1 kts | 341° |
| 2026-04-16 20:57 | 41.29859 | -75.85805 | 545 ft | 0 kts | 343° |